Time;durP1;ratioP1;P1;durP2;ratioP2;P2;SDS_P1;SDS_P2;PMS_P1;PMS_P2;Temp;Humidity;BMP_temperature;BMP_pressure;BME280_temperature;BME280_humidity;BME280_pressure;Samples;Min_cycle;Max_cycle;Signal;HPM_P1;HPM_P2
2023/05/05 00:01:48;;;;;;;28.00;16.30;;;;;;;8.13;54.94;100785.83;129767;1267;107575;-80
2023/05/05 00:04:54;;;;;;;23.70;15.30;;;;;;;8.08;55.05;100781.23;129832;1268;107612;-77
2023/05/05 00:07:59;;;;;;;23.80;15.20;;;;;;;8.01;55.10;100781.42;129850;1268;107586;-77
2023/05/05 00:11:05;;;;;;;26.40;16.10;;;;;;;7.95;55.13;100783.20;129851;1267;107543;-78
2023/05/05 00:14:11;;;;;;;26.40;16.50;;;;;;;7.91;55.31;100783.86;129794;1280;107261;-76
2023/05/05 00:17:16;;;;;;;27.50;16.50;;;;;;;7.86;55.49;100783.84;129805;1265;107543;-77
2023/05/05 00:20:22;;;;;;;25.80;15.80;;;;;;;7.82;55.54;100773.73;129838;1268;107537;-77
2023/05/05 00:23:27;;;;;;;27.90;16.60;;;;;;;7.76;55.75;100775.11;129856;1268;107235;-77
2023/05/05 00:26:33;;;;;;;28.40;17.30;;;;;;;7.69;55.70;100771.78;129712;1267;107450;-77
2023/05/05 00:29:38;;;;;;;27.00;16.00;;;;;;;7.64;55.77;100771.11;129707;1281;107545;-77
2023/05/05 00:32:47;;;;;;;28.60;16.90;;;;;;;7.59;55.88;100769.92;129867;1267;107443;-76
2023/05/05 00:35:52;;;;;;;27.10;16.10;;;;;;;7.51;56.07;100772.79;129679;1267;107569;-76
2023/05/05 00:38:58;;;;;;;29.50;16.90;;;;;;;7.44;56.18;100769.61;129720;1267;107585;-77
2023/05/05 00:42:03;;;;;;;26.00;16.40;;;;;;;7.41;56.24;100770.91;129805;1269;107631;-76
2023/05/05 00:45:10;;;;;;;24.00;16.20;;;;;;;7.37;56.09;100768.41;129867;1267;107526;-77
2023/05/05 00:48:17;;;;;;;28.50;17.50;;;;;;;7.33;56.22;100769.27;129731;1265;107471;-77
2023/05/05 00:51:24;;;;;;;27.00;16.80;;;;;;;7.32;56.67;100767.43;129803;1268;106087;-76
2023/05/05 00:54:30;;;;;;;30.40;17.20;;;;;;;7.32;56.32;100766.36;129756;1268;107286;-76
2023/05/05 00:57:36;;;;;;;28.20;16.40;;;;;;;7.31;56.52;100768.34;129755;1267;107631;-76
2023/05/05 01:00:42;;;;;;;27.90;17.80;;;;;;;7.30;56.63;100767.58;129664;1268;107412;-77
2023/05/05 01:03:48;;;;;;;29.20;16.40;;;;;;;7.28;56.76;100767.16;129816;1265;107414;-77
2023/05/05 01:07:03;;;;;;;29.20;17.20;;;;;;;7.23;56.89;100768.83;129736;1267;107547;-77
2023/05/05 01:10:14;;;;;;;27.70;17.40;;;;;;;7.17;57.02;100767.16;129878;1275;107272;-77
2023/05/05 01:13:30;;;;;;;30.10;17.60;;;;;;;7.13;57.00;100765.16;129655;1269;105656;-77
2023/05/05 01:16:40;;;;;;;36.80;19.90;;;;;;;7.11;56.91;100766.42;129874;1265;107418;-77
2023/05/05 01:20:08;;;;;;;30.60;18.30;;;;;;;7.12;57.46;100762.09;129822;1264;107293;-77
2023/05/05 01:23:27;;;;;;;28.00;17.50;;;;;;;7.10;57.23;100759.90;129705;1265;107571;-75
2023/05/05 01:26:58;;;;;;;28.70;17.60;;;;;;;7.07;57.45;100762.58;129761;1269;107469;-77
2023/05/05 01:30:18;;;;;;;28.30;16.40;;;;;;;7.07;57.52;100759.94;129667;1276;106824;-77
2023/05/05 01:33:28;;;;;;;28.30;16.90;;;;;;;7.07;57.75;100759.92;129786;1265;107488;-77
2023/05/05 01:36:37;;;;;;;31.40;18.40;;;;;;;7.11;57.78;100754.39;129787;1269;107647;-76
2023/05/05 01:39:46;;;;;;;31.50;18.50;;;;;;;7.13;57.76;100749.94;129759;1267;107524;-77
2023/05/05 01:42:54;;;;;;;28.30;17.80;;;;;;;7.15;58.09;100747.13;129660;1268;107009;-75
2023/05/05 01:46:02;;;;;;;31.40;18.30;;;;;;;7.17;58.20;100744.83;129870;1286;107283;-76
2023/05/05 01:49:09;;;;;;;30.30;18.40;;;;;;;7.20;57.90;100747.30;129620;1270;106756;-76
2023/05/05 01:52:16;;;;;;;32.30;17.90;;;;;;;7.22;58.23;100750.32;129633;1278;107310;-77
2023/05/05 01:55:25;;;;;;;26.40;16.00;;;;;;;7.25;58.10;100751.89;129634;1264;107290;-75
2023/05/05 01:58:33;;;;;;;27.80;14.90;;;;;;;7.26;58.67;100748.78;129690;1270;107419;-77
2023/05/05 02:01:43;;;;;;;27.50;14.70;;;;;;;7.26;58.50;100747.67;129580;1270;107627;-74
2023/05/05 02:04:51;;;;;;;27.30;15.20;;;;;;;7.31;58.72;100743.80;129725;1267;105639;-78
2023/05/05 02:08:00;;;;;;;27.60;15.20;;;;;;;7.42;58.86;100742.72;129760;1264;107629;-77
2023/05/05 02:11:08;;;;;;;27.90;15.50;;;;;;;7.50;58.88;100737.70;129688;1268;107567;-77
2023/05/05 02:14:15;;;;;;;25.50;16.40;;;;;;;7.56;58.88;100740.42;129811;1267;106860;-76
2023/05/05 02:17:23;;;;;;;23.00;14.80;;;;;;;7.59;58.91;100734.65;129755;1270;106567;-75
2023/05/05 02:20:32;;;;;;;24.60;15.70;;;;;;;7.61;58.98;100730.57;129736;1267;107581;-76
2023/05/05 02:23:38;;;;;;;26.30;14.90;;;;;;;7.63;59.25;100734.13;129716;1268;107406;-77
2023/05/05 02:26:47;;;;;;;23.60;14.30;;;;;;;7.65;59.14;100730.84;129728;1268;107457;-75
2023/05/05 02:29:57;;;;;;;20.80;14.10;;;;;;;7.65;59.34;100732.04;129697;1269;107464;-77
2023/05/05 02:33:09;;;;;;;22.20;14.40;;;;;;;7.66;59.41;100731.48;129877;1267;105653;-76
2023/05/05 02:36:20;;;;;;;25.40;14.70;;;;;;;7.65;59.18;100733.13;129753;1264;107381;-77
2023/05/05 02:39:35;;;;;;;24.50;14.50;;;;;;;7.64;59.53;100731.41;129903;1267;107517;-79
2023/05/05 02:42:47;;;;;;;23.50;15.30;;;;;;;7.66;59.64;100730.04;129710;1265;107468;-79
2023/05/05 02:45:54;;;;;;;21.60;14.40;;;;;;;7.67;59.60;100730.63;129827;1272;107418;-77
2023/05/05 02:49:00;;;;;;;26.30;15.40;;;;;;;7.66;59.98;100730.59;129687;1268;107452;-78
2023/05/05 02:52:06;;;;;;;23.00;15.00;;;;;;;7.64;59.79;100729.31;129886;1267;107579;-76
2023/05/05 02:55:14;;;;;;;23.80;15.00;;;;;;;7.65;60.00;100732.09;129715;1268;107455;-76
2023/05/05 02:58:29;;;;;;;26.50;15.40;;;;;;;7.64;60.19;100735.83;129697;1268;107553;-78
2023/05/05 03:01:55;;;;;;;24.20;15.00;;;;;;;7.63;60.07;100734.36;129865;1268;107394;-77
2023/05/05 03:05:09;;;;;;;20.80;13.70;;;;;;;7.62;60.19;100734.40;129630;1275;107550;-78
2023/05/05 03:08:26;;;;;;;25.40;15.90;;;;;;;7.61;60.39;100735.38;129633;1275;107400;-76
2023/05/05 03:11:35;;;;;;;23.80;15.20;;;;;;;7.58;60.56;100734.92;129639;1270;107418;-78
2023/05/05 03:14:44;;;;;;;;;;;;;;;7.58;60.29;100735.09;129700;1270;107498;-77
2023/05/05 03:17:53;;;;;;;23.80;15.10;;;;;;;7.57;60.59;100731.08;129656;1271;107519;-78
2023/05/05 03:21:06;;;;;;;24.10;14.40;;;;;;;7.59;60.51;100731.33;129671;1270;107843;-76
2023/05/05 03:24:17;;;;;;;23.40;15.30;;;;;;;7.62;60.73;100730.20;129664;1264;107505;-75
2023/05/05 03:27:26;;;;;;;23.40;13.40;;;;;;;7.65;60.91;100728.66;129671;1265;106283;-75
2023/05/05 03:30:32;;;;;;;25.80;13.50;;;;;;;7.66;60.91;100728.46;129658;1271;107291;-76
2023/05/05 03:33:37;;;;;;;27.00;14.50;;;;;;;7.69;61.01;100726.43;129631;1269;105762;-78
2023/05/05 03:36:43;;;;;;;24.40;14.60;;;;;;;7.77;61.03;100728.23;129621;1281;107633;-78
2023/05/05 03:39:50;;;;;;;23.40;14.90;;;;;;;7.85;61.00;100729.91;129668;1271;107321;-78
2023/05/05 03:42:56;;;;;;;25.70;15.20;;;;;;;7.95;61.23;100727.92;129474;1271;213712;-77
2023/05/05 03:46:02;;;;;;;22.90;15.10;;;;;;;8.01;61.23;100730.94;129696;1270;106187;-77
2023/05/05 03:49:08;;;;;;;22.00;14.50;;;;;;;8.10;61.11;100733.59;129680;1275;106462;-77
2023/05/05 03:52:14;;;;;;;23.10;14.80;;;;;;;8.19;61.10;100731.41;129681;1270;107462;-76
2023/05/05 03:55:20;;;;;;;26.50;14.80;;;;;;;8.23;61.14;100735.30;129623;1278;107585;-76
2023/05/05 03:58:26;;;;;;;24.50;15.20;;;;;;;8.24;61.31;100735.96;129535;1269;107419;-77
2023/05/05 04:01:31;;;;;;;24.00;15.20;;;;;;;8.28;61.31;100738.02;129675;1270;107411;-77
2023/05/05 04:04:38;;;;;;;23.60;14.80;;;;;;;8.31;61.57;100739.32;129803;1268;107448;-77
2023/05/05 04:07:43;;;;;;;26.50;16.00;;;;;;;8.31;61.77;100740.90;129653;1270;107478;-77
2023/05/05 04:10:49;;;;;;;24.90;16.30;;;;;;;8.36;61.68;100742.07;129806;1266;105803;-76
2023/05/05 04:13:55;;;;;;;24.50;15.00;;;;;;;8.47;61.76;100744.90;129690;1268;107515;-77
2023/05/05 04:17:01;;;;;;;23.60;14.90;;;;;;;8.58;61.77;100741.58;129697;1264;107563;-77
2023/05/05 04:20:08;;;;;;;25.80;15.30;;;;;;;8.65;61.91;100742.91;129672;1277;107391;-77
2023/05/05 04:23:14;;;;;;;21.80;13.80;;;;;;;8.73;62.14;100740.46;129675;1275;107568;-77
2023/05/05 04:26:20;;;;;;;22.80;13.60;;;;;;;8.82;62.23;100735.48;129826;1267;106450;-78
2023/05/05 04:29:26;;;;;;;19.60;12.50;;;;;;;8.90;62.38;100741.15;129677;1269;107560;-78
2023/05/05 04:32:32;;;;;;;19.10;12.80;;;;;;;8.99;62.45;100740.70;129685;1268;107295;-78
2023/05/05 04:35:38;;;;;;;19.60;13.40;;;;;;;9.10;62.66;100747.44;129725;1277;107461;-77
2023/05/05 04:38:43;;;;;;;22.00;13.40;;;;;;;9.25;62.63;100745.45;129665;1271;107584;-78
2023/05/05 04:41:50;;;;;;;21.40;13.40;;;;;;;9.40;62.66;100750.17;129689;1269;107419;-79
2023/05/05 04:44:55;;;;;;;20.70;13.30;;;;;;;9.51;62.45;100752.04;129740;1270;107571;-76
2023/05/05 04:48:03;;;;;;;17.60;11.70;;;;;;;9.62;62.49;100752.52;129704;1271;106447;-79
2023/05/05 04:51:09;;;;;;;19.60;12.10;;;;;;;9.77;62.35;100749.22;129839;1270;107548;-79
2023/05/05 04:54:15;;;;;;;18.70;11.20;;;;;;;9.93;62.88;100753.58;129836;1264;107538;-80
2023/05/05 04:57:21;;;;;;;16.10;10.80;;;;;;;10.05;62.58;100758.18;129791;1271;107506;-78
2023/05/05 05:00:27;;;;;;;16.00;10.50;;;;;;;10.15;62.32;100758.14;129662;1275;107597;-77
2023/05/05 05:03:33;;;;;;;14.50;10.10;;;;;;;10.28;62.09;100756.65;129710;1270;107406;-77
2023/05/05 05:06:38;;;;;;;13.10;9.30;;;;;;;10.41;62.44;100754.20;129517;1270;107430;-77
2023/05/05 05:09:44;;;;;;;14.40;9.80;;;;;;;10.57;62.19;100759.72;129672;1270;107575;-77
2023/05/05 05:12:50;;;;;;;17.20;10.00;;;;;;;10.73;62.14;100762.95;129634;1269;107612;-77
2023/05/05 05:15:55;;;;;;;13.50;9.30;;;;;;;10.91;62.02;100763.00;129655;1269;107530;-77
2023/05/05 05:19:01;;;;;;;15.80;9.60;;;;;;;11.09;61.52;100765.22;129704;1270;107577;-78
2023/05/05 05:22:07;;;;;;;16.10;9.80;;;;;;;11.25;61.57;100770.16;129750;1264;107414;-78
2023/05/05 05:25:15;;;;;;;13.70;9.20;;;;;;;11.38;61.63;100768.34;129646;1269;107971;-77
2023/05/05 05:28:20;;;;;;;14.40;9.20;;;;;;;11.54;61.40;100768.46;129705;1269;107478;-77
2023/05/05 05:31:33;;;;;;;13.20;8.50;;;;;;;11.70;61.30;100766.98;129789;1270;107481;-77
2023/05/05 05:34:39;;;;;;;12.30;8.90;;;;;;;11.88;61.29;100771.14;129875;1271;107567;-77
2023/05/05 05:37:46;;;;;;;13.40;8.90;;;;;;;12.06;60.79;100776.17;129741;1263;107291;-76
2023/05/05 05:40:53;;;;;;;13.80;8.70;;;;;;;12.23;60.69;100779.50;129755;1264;107438;-76
2023/05/05 05:43:59;;;;;;;15.40;8.60;;;;;;;12.40;60.56;100783.15;129762;1269;107423;-75
2023/05/05 05:47:05;;;;;;;12.40;8.50;;;;;;;12.54;60.33;100779.98;129703;1267;107420;-76
2023/05/05 05:50:12;;;;;;;13.30;8.70;;;;;;;12.68;60.16;100777.53;129927;1266;107594;-76
2023/05/05 05:53:17;;;;;;;12.00;9.00;;;;;;;12.86;60.35;100778.92;129888;1267;107386;-76
2023/05/05 05:56:23;;;;;;;11.20;8.40;;;;;;;13.02;60.14;100778.50;129906;1267;107475;-77
2023/05/05 05:59:29;;;;;;;11.80;8.60;;;;;;;13.16;59.83;100779.27;129902;1269;107560;-76
2023/05/05 06:02:35;;;;;;;12.00;8.10;;;;;;;13.31;59.64;100778.80;129773;1267;107622;-75
2023/05/05 06:05:40;;;;;;;12.30;8.50;;;;;;;13.49;59.63;100776.80;129884;1264;107535;-75
2023/05/05 06:08:46;;;;;;;11.80;8.10;;;;;;;13.69;59.46;100778.70;129831;1268;107272;-80
2023/05/05 06:11:51;;;;;;;12.40;7.70;;;;;;;13.87;59.06;100778.41;129911;1267;107560;-78
2023/05/05 06:14:57;;;;;;;10.20;7.10;;;;;;;14.03;59.04;100781.85;130040;1267;107524;-79
2023/05/05 06:18:03;;;;;;;9.70;7.20;;;;;;;14.21;58.71;100785.70;129850;1267;107553;-79
2023/05/05 06:21:08;;;;;;;8.90;6.80;;;;;;;14.35;58.68;100786.38;129944;1267;107351;-78
2023/05/05 06:24:14;;;;;;;8.80;6.20;;;;;;;14.44;58.13;100787.39;129943;1267;107573;-78
2023/05/05 06:27:20;;;;;;;10.40;6.60;;;;;;;14.50;58.07;100791.40;129961;1278;107265;-78
2023/05/05 06:30:26;;;;;;;11.80;6.40;;;;;;;14.58;57.62;100789.85;130006;1266;107671;-76
2023/05/05 06:33:33;;;;;;;9.80;6.30;;;;;;;14.66;57.32;100795.41;129972;1264;107570;-78
2023/05/05 06:36:38;;;;;;;11.50;6.20;;;;;;;14.69;57.03;100793.13;129958;1266;107534;-78
2023/05/05 06:39:44;;;;;;;7.80;6.10;;;;;;;14.78;56.62;100795.52;129954;1264;107968;-78
2023/05/05 06:42:50;;;;;;;7.20;5.70;;;;;;;14.80;55.96;100800.55;129910;1262;107528;-78
2023/05/05 06:45:59;;;;;;;9.40;6.60;;;;;;;14.85;54.24;100798.71;129799;1264;107406;-78
2023/05/05 06:49:05;;;;;;;6.80;5.50;;;;;;;14.91;54.14;100797.95;129906;1267;107563;-78
2023/05/05 06:52:11;;;;;;;7.20;5.30;;;;;;;15.03;55.29;100800.48;129787;1267;107546;-78
2023/05/05 06:55:17;;;;;;;7.10;5.00;;;;;;;15.18;54.94;100800.91;129749;1268;107415;-78
2023/05/05 06:58:22;;;;;;;8.40;5.50;;;;;;;15.28;54.78;100801.00;129822;1268;107550;-78
2023/05/05 07:01:28;;;;;;;6.50;4.90;;;;;;;15.40;54.61;100800.80;129677;1267;107541;-78
2023/05/05 07:04:33;;;;;;;9.80;5.80;;;;;;;15.51;54.27;100798.23;129697;1268;106801;-78
2023/05/05 07:07:40;;;;;;;7.20;5.30;;;;;;;15.59;53.02;100801.52;129872;1264;107396;-78
2023/05/05 07:10:46;;;;;;;8.50;5.30;;;;;;;15.63;52.88;100798.73;129854;1266;107541;-78
2023/05/05 07:13:51;;;;;;;6.10;5.20;;;;;;;15.76;52.95;100795.28;129822;1267;107402;-78
2023/05/05 07:16:57;;;;;;;5.80;4.70;;;;;;;15.94;52.65;100794.21;129766;1264;107392;-78
2023/05/05 07:20:02;;;;;;;8.00;4.40;;;;;;;16.13;52.80;100793.91;129880;1267;107570;-81
2023/05/05 07:23:08;;;;;;;7.50;4.40;;;;;;;16.29;52.54;100791.98;129891;1267;106707;-80
2023/05/05 07:26:14;;;;;;;6.70;4.90;;;;;;;16.39;52.09;100790.78;129947;1267;107309;-78
2023/05/05 07:29:19;;;;;;;6.70;4.60;;;;;;;16.47;50.89;100792.90;129694;1264;107540;-78
2023/05/05 07:32:25;;;;;;;6.10;4.00;;;;;;;16.54;51.44;100787.65;129960;1267;105671;-78
2023/05/05 07:35:31;;;;;;;6.40;4.30;;;;;;;16.67;51.45;100791.73;130014;1268;107295;-78
2023/05/05 07:38:36;;;;;;;6.50;4.60;;;;;;;16.77;50.63;100790.71;129988;1262;107528;-78
2023/05/05 07:41:42;;;;;;;7.40;4.80;;;;;;;16.81;50.81;100789.46;129993;1264;107634;-78
2023/05/05 07:44:47;;;;;;;5.60;4.50;;;;;;;16.87;50.96;100786.68;129973;1267;107569;-78
2023/05/05 07:47:53;;;;;;;7.40;4.70;;;;;;;16.94;50.82;100784.61;129993;1267;107523;-78
2023/05/05 07:50:58;;;;;;;7.50;4.90;;;;;;;17.01;50.67;100786.48;129946;1267;107531;-78
2023/05/05 07:54:04;;;;;;;6.60;5.10;;;;;;;17.02;49.81;100786.16;129878;1270;107531;-78
2023/05/05 07:57:10;;;;;;;6.10;4.70;;;;;;;16.95;49.08;100783.25;129764;1265;107531;-79
2023/05/05 08:00:18;;;;;;;10.20;5.30;;;;;;;16.94;48.53;100784.10;129766;1269;107623;-78
2023/05/05 08:03:24;;;;;;;6.40;4.80;;;;;;;16.78;48.50;100789.70;129870;1265;107502;-80
2023/05/05 08:06:30;;;;;;;7.20;4.80;;;;;;;16.81;48.42;100788.26;129929;1264;106221;-78
2023/05/05 08:09:36;;;;;;;6.20;4.50;;;;;;;16.78;46.33;100790.34;129762;1267;107528;-78
2023/05/05 08:12:41;;;;;;;4.60;3.80;;;;;;;16.72;47.28;100788.10;129795;1270;107519;-79
2023/05/05 08:15:47;;;;;;;4.70;3.80;;;;;;;16.80;47.78;100785.08;129694;1267;107544;-78
2023/05/05 08:18:53;;;;;;;5.20;3.60;;;;;;;16.91;47.70;100784.55;129761;1267;107567;-79
2023/05/05 08:21:59;;;;;;;5.50;4.70;;;;;;;17.01;47.80;100783.27;129860;1263;107568;-79
2023/05/05 08:25:06;;;;;;;5.10;4.00;;;;;;;17.04;45.86;100783.42;130055;1273;107262;-78
2023/05/05 08:28:12;;;;;;;6.40;4.30;;;;;;;16.89;43.69;100777.23;130001;1267;107428;-79
2023/05/05 08:31:17;;;;;;;4.40;3.60;;;;;;;16.77;42.66;100785.30;129937;1267;107534;-80
2023/05/05 08:34:23;;;;;;;6.60;3.40;;;;;;;16.67;42.12;100785.89;129877;1267;107590;-78
2023/05/05 08:37:29;;;;;;;5.50;4.00;;;;;;;16.71;44.63;100784.73;129819;1267;106556;-78
2023/05/05 08:40:36;;;;;;;7.20;4.00;;;;;;;16.73;44.34;100782.65;129752;1264;107536;-79
2023/05/05 08:43:44;;;;;;;6.00;4.60;;;;;;;16.73;42.59;100787.61;129807;1263;107285;-78
2023/05/05 08:46:50;;;;;;;4.20;3.80;;;;;;;16.71;44.38;100789.07;130020;1267;106535;-79
2023/05/05 08:49:59;;;;;;;5.50;4.30;;;;;;;16.81;44.90;100781.39;130091;1267;105934;-79
2023/05/05 08:53:10;;;;;;;5.70;4.40;;;;;;;16.91;43.32;100782.30;129962;1267;105925;-80
2023/05/05 08:56:17;;;;;;;6.30;5.20;;;;;;;16.89;43.47;100779.42;130063;1267;107480;-80
2023/05/05 08:59:24;;;;;;;6.60;4.40;;;;;;;16.75;43.07;100779.60;129723;1264;107380;-79
2023/05/05 09:02:30;;;;;;;7.00;4.10;;;;;;;16.57;42.27;100785.10;129921;1267;107553;-79
2023/05/05 09:05:37;;;;;;;4.60;4.10;;;;;;;16.46;43.30;100784.04;129900;1267;107563;-80
2023/05/05 09:08:43;;;;;;;5.60;3.90;;;;;;;16.44;42.96;100785.64;129891;1267;107689;-79
2023/05/05 09:11:48;;;;;;;5.80;3.50;;;;;;;16.43;42.86;100783.46;129883;1267;107536;-80
2023/05/05 09:14:54;;;;;;;6.80;3.90;;;;;;;16.45;42.83;100785.05;129916;1267;107538;-80
2023/05/05 09:18:01;;;;;;;4.70;3.80;;;;;;;16.48;43.33;100783.43;129903;1262;107526;-78
2023/05/05 09:21:20;;;;;;;5.60;3.80;;;;;;;16.54;42.45;100783.50;129879;1279;107264;-78
2023/05/05 09:24:26;;;;;;;5.20;3.90;;;;;;;16.53;43.16;100782.02;129928;1275;107580;-78
2023/05/05 09:27:35;;;;;;;5.60;3.80;;;;;;;16.46;41.09;100782.61;129826;1267;106714;-78
2023/05/05 09:30:42;;;;;;;4.70;3.70;;;;;;;16.36;40.97;100780.40;129662;1264;107654;-78
2023/05/05 09:33:48;;;;;;;4.80;3.60;;;;;;;16.28;41.58;100782.86;129703;1263;107698;-78
2023/05/05 09:36:54;;;;;;;5.70;3.80;;;;;;;16.22;41.78;100780.17;129707;1264;107466;-78
2023/05/05 09:40:00;;;;;;;4.40;3.10;;;;;;;16.29;42.61;100781.52;129717;1264;107554;-78
2023/05/05 09:43:06;;;;;;;4.40;3.70;;;;;;;16.49;42.04;100782.83;129811;1267;105861;-78
2023/05/05 09:46:12;;;;;;;4.10;3.50;;;;;;;16.64;41.13;100780.13;129803;1267;107521;-78
2023/05/05 09:49:18;;;;;;;5.10;3.20;;;;;;;16.79;41.99;100778.61;129718;1265;107516;-78
2023/05/05 09:52:25;;;;;;;5.00;3.70;;;;;;;17.00;42.62;100777.61;129927;1268;107503;-78
2023/05/05 09:55:30;;;;;;;4.70;3.50;;;;;;;17.23;42.58;100778.30;129716;1267;107396;-78
2023/05/05 09:58:36;;;;;;;3.40;2.90;;;;;;;17.49;42.63;100777.83;129742;1264;107578;-79
2023/05/05 10:01:42;;;;;;;4.20;2.90;;;;;;;17.75;42.26;100772.20;129841;1264;107431;-77
2023/05/05 10:04:48;;;;;;;6.10;4.40;;;;;;;18.01;42.62;100772.48;129627;1266;107557;-78
2023/05/05 10:07:53;;;;;;;4.90;3.80;;;;;;;18.28;42.54;100773.83;129734;1267;107589;-78
2023/05/05 10:11:01;;;;;;;4.70;3.30;;;;;;;18.46;42.38;100773.30;129716;1268;107588;-77
2023/05/05 10:14:08;;;;;;;5.20;3.70;;;;;;;18.71;42.17;100772.14;129767;1267;107533;-77
2023/05/05 10:17:15;;;;;;;4.30;3.40;;;;;;;18.89;40.76;100767.33;129712;1264;107552;-77
2023/05/05 10:20:23;;;;;;;5.20;4.20;;;;;;;18.92;39.32;100766.94;129795;1267;107644;-78
2023/05/05 10:23:36;;;;;;;4.70;3.90;;;;;;;18.94;40.86;100767.13;129891;1267;107444;-78
2023/05/05 10:26:44;;;;;;;5.60;4.30;;;;;;;19.09;40.93;100765.83;129894;1267;107574;-78
2023/05/05 10:29:58;;;;;;;5.80;4.10;;;;;;;19.12;38.04;100763.23;129855;1267;107576;-78
2023/05/05 10:33:09;;;;;;;6.50;4.00;;;;;;;19.15;39.51;100761.08;129779;1264;107488;-78
2023/05/05 10:36:16;;;;;;;7.30;4.10;;;;;;;19.31;40.03;100762.91;129840;1268;107557;-77
2023/05/05 10:39:22;;;;;;;4.60;3.30;;;;;;;19.48;40.01;100754.42;129707;1265;107396;-78
2023/05/05 10:42:28;;;;;;;7.40;4.70;;;;;;;19.60;40.02;100756.30;129673;1267;105711;-78
2023/05/05 10:45:33;;;;;;;5.60;4.30;;;;;;;19.50;39.58;100755.27;129951;1267;108666;-77
2023/05/05 10:48:51;;;;;;;5.90;4.40;;;;;;;19.30;38.91;100759.14;129882;1267;107568;-77
2023/05/05 10:52:03;;;;;;;6.40;4.30;;;;;;;19.13;39.66;100760.70;129778;1278;107287;-78
2023/05/05 10:55:13;;;;;;;6.30;4.60;;;;;;;18.98;38.05;100759.00;129719;1265;107491;-79
2023/05/05 11:01:54;;;;;;;6.20;4.40;;;;;;;18.90;39.31;100756.98;127021;1295;635379;-78
2023/05/05 11:05:19;;;;;;;4.70;4.00;;;;;;;18.94;39.44;100760.93;130134;1260;107367;-78
2023/05/05 11:08:28;;;;;;;5.30;4.00;;;;;;;18.92;39.47;100754.42;130078;1263;107286;-78
2023/05/05 11:12:03;;;;;;;6.20;4.30;;;;;;;18.92;39.44;100751.17;130094;1260;106599;-78
2023/05/05 11:15:37;;;;;;;5.70;4.30;;;;;;;18.86;38.42;100751.91;130129;1258;227614;-78
2023/05/05 11:18:43;;;;;;;5.60;4.10;;;;;;;18.75;39.17;100754.70;131075;1251;107528;-78
2023/05/05 11:22:02;;;;;;;5.70;4.30;;;;;;;18.73;39.30;100755.86;130987;1253;107290;-78
2023/05/05 11:25:39;;;;;;;7.80;4.40;;;;;;;18.71;39.20;100753.50;131054;1253;107239;-78
2023/05/05 11:29:00;;;;;;;6.20;4.30;;;;;;;18.67;38.98;100750.30;131147;1253;107537;-78
2023/05/05 11:32:15;;;;;;;4.70;4.20;;;;;;;18.61;39.05;100748.34;131088;1254;107498;-78
2023/05/05 11:35:21;;;;;;;5.40;4.30;;;;;;;18.58;39.14;100748.30;131025;1251;107366;-78
2023/05/05 11:38:37;;;;;;;6.00;3.90;;;;;;;18.53;39.11;100754.25;130981;1251;107418;-79
2023/05/05 11:42:11;;;;;;;7.60;4.80;;;;;;;18.50;38.94;100750.82;131013;1253;106529;-79
2023/05/05 11:45:23;;;;;;;6.90;4.30;;;;;;;18.38;38.08;100748.75;131071;1251;107474;-79
2023/05/05 11:48:29;;;;;;;7.10;5.30;;;;;;;18.24;38.33;100745.52;131062;1254;108112;-78
2023/05/05 11:51:35;;;;;;;6.60;4.30;;;;;;;18.23;38.30;100745.38;131013;1253;107215;-78
2023/05/05 11:54:46;;;;;;;5.80;4.40;;;;;;;18.36;38.85;100742.95;131025;1254;106683;-78
2023/05/05 11:57:52;;;;;;;5.30;4.20;;;;;;;18.53;38.67;100747.30;131177;1253;106973;-78
2023/05/05 12:00:57;;;;;;;5.40;3.90;;;;;;;18.67;38.38;100747.34;131053;1251;107416;-80
2023/05/05 12:04:03;;;;;;;5.10;4.10;;;;;;;18.76;38.42;100746.48;130992;1254;107501;-78
2023/05/05 12:07:14;;;;;;;5.60;3.60;;;;;;;18.89;38.32;100745.65;131035;1251;107500;-78
2023/05/05 12:10:25;;;;;;;4.90;3.90;;;;;;;18.97;38.22;100744.06;131223;1251;107346;-78
2023/05/05 12:13:31;;;;;;;5.20;4.20;;;;;;;19.03;38.02;100742.80;131144;1254;108605;-78
2023/05/05 12:16:36;;;;;;;4.20;3.50;;;;;;;19.03;38.13;100742.55;131215;1273;107509;-78
2023/05/05 12:19:48;;;;;;;5.90;4.30;;;;;;;19.08;38.32;100744.21;131331;1258;107383;-78
2023/05/05 12:23:01;;;;;;;5.70;4.00;;;;;;;19.18;38.39;100740.84;131312;1254;107618;-78
2023/05/05 12:26:07;;;;;;;8.30;6.10;;;;;;;19.20;37.81;100741.96;131086;1252;107589;-78
2023/05/05 12:29:14;;;;;;;7.20;4.60;;;;;;;19.11;37.87;100746.28;131113;1253;106245;-78
2023/05/05 12:32:24;;;;;;;7.90;3.70;;;;;;;19.01;37.76;100746.66;131005;1253;105949;-78
2023/05/05 12:35:30;;;;;;;7.80;3.70;;;;;;;18.88;37.47;100744.86;131100;1251;107488;-78
2023/05/05 12:38:36;;;;;;;6.10;4.00;;;;;;;18.75;37.90;100748.09;131063;1253;107526;-78
2023/05/05 12:41:41;;;;;;;5.00;3.90;;;;;;;18.68;37.65;100749.90;131025;1251;107491;-78
2023/05/05 12:44:47;;;;;;;6.90;4.00;;;;;;;18.61;37.72;100754.02;131006;1254;107515;-78
2023/05/05 12:47:53;;;;;;;5.20;3.50;;;;;;;18.60;37.40;100751.90;131001;1254;108159;-78
2023/05/05 12:51:16;;;;;;;4.60;3.50;;;;;;;18.61;37.64;100751.45;131035;1253;107502;-78
2023/05/05 12:54:22;;;;;;;4.30;3.30;;;;;;;18.67;37.29;100747.73;131080;1251;107429;-78
2023/05/05 12:57:28;;;;;;;3.80;3.00;;;;;;;18.72;37.54;100744.82;131093;1263;107282;-78
2023/05/05 13:00:34;;;;;;;6.10;3.10;;;;;;;18.93;37.56;100740.20;131181;1254;107537;-78
2023/05/05 13:03:39;;;;;;;3.90;3.40;;;;;;;19.09;37.46;100741.58;130995;1251;107512;-78
2023/05/05 13:06:46;;;;;;;5.20;3.70;;;;;;;19.14;37.44;100736.80;131190;1251;107807;-78
2023/05/05 13:10:05;;;;;;;4.40;3.80;;;;;;;19.12;37.53;100742.63;131075;1251;107356;-78
2023/05/05 13:13:11;;;;;;;7.80;4.20;;;;;;;19.12;37.59;100740.48;131287;1254;107146;-78
2023/05/05 13:16:17;;;;;;;5.30;3.50;;;;;;;19.05;37.21;100739.08;131018;1251;106754;-78
2023/05/05 13:19:23;;;;;;;6.40;3.80;;;;;;;19.07;37.82;100740.05;130902;1256;107101;-78
2023/05/05 13:22:29;;;;;;;5.80;3.50;;;;;;;19.15;37.70;100733.33;130972;1266;106767;-78
2023/05/05 13:25:35;;;;;;;5.00;3.40;;;;;;;19.10;37.85;100728.88;130974;1257;107517;-78
2023/05/05 13:28:41;;;;;;;8.20;3.50;;;;;;;18.97;37.59;100730.61;130949;1257;108499;-78
2023/05/05 13:31:47;;;;;;;5.10;2.90;;;;;;;18.69;38.20;100728.33;131006;1273;107485;-78
2023/05/05 13:34:52;;;;;;;7.80;3.40;;;;;;;18.48;38.15;100734.92;131280;1251;107421;-80
2023/05/05 13:37:58;;;;;;;5.60;3.40;;;;;;;18.34;38.20;100734.19;131054;1257;107549;-79
2023/05/05 13:41:03;;;;;;;4.30;3.30;;;;;;;18.23;38.30;100722.40;131003;1273;107348;-79
2023/05/05 13:44:09;;;;;;;6.30;3.30;;;;;;;18.12;38.51;100719.25;131456;1251;106471;-79
2023/05/05 13:47:14;;;;;;;5.00;3.40;;;;;;;18.10;38.40;100722.39;131494;1248;107448;-78
2023/05/05 13:50:20;;;;;;;6.50;3.50;;;;;;;18.09;38.59;100716.60;131489;1250;107515;-79
2023/05/05 13:53:25;;;;;;;4.90;3.20;;;;;;;18.06;38.56;100712.95;131509;1266;106482;-78
2023/05/05 13:56:31;;;;;;;4.50;3.00;;;;;;;18.04;38.71;100710.23;131526;1270;107252;-78
2023/05/05 13:59:37;;;;;;;5.70;3.20;;;;;;;18.04;38.74;100708.70;131521;1251;107328;-78
2023/05/05 14:02:42;;;;;;;8.20;3.30;;;;;;;17.98;38.76;100710.13;131679;1250;105680;-79
2023/05/05 14:05:49;;;;;;;5.00;3.20;;;;;;;17.91;38.69;100709.72;131881;1250;108539;-79
2023/05/05 14:08:55;;;;;;;7.60;3.00;;;;;;;17.86;38.89;100708.07;131750;1250;107210;-79
2023/05/05 14:12:01;;;;;;;5.10;3.20;;;;;;;17.72;39.20;100709.08;131902;1251;107124;-79
2023/05/05 14:15:08;;;;;;;5.20;3.20;;;;;;;17.58;39.37;100706.89;131650;1266;107245;-79